»·PEaware :: N1537S KIFP-KBUR

N1537S :: KIFP-KBUR

FLIGHT INFORMATION

Flight Status: Arrived
Operator: Privately registered:
United States
More flights under this callsign
Pilot: Jay S. (4626)
Aircraft: Unknown
(E50P)
More flights by this aircraft type
Origin: KIFP Laughlin/Bullhead Intl
United States
Destination: KBUR Bob Hope-Burbank
United States
More flights between these airports :: More routes between these airports
Route: +
File this flight plan on PilotEdge
Remarks:
Altitude:
(Current/Filed)
12,500ft
Speed:
(Current/Filed)
0kts
Departed: 19-Sep-14 02:47 PM
Arrived: 19-Sep-14 03:28 PM
Distance/Time
Traveled:
196nm/0:41
Distance/Time
To Go:
Arrived

Flight Plot

Page will automatically refresh every two minutes.

Flight plan parsing failed; only flown route is shown


Map Options




Map Legend


Flown Route
Filed Route
Departure Airport
Arrival Airport
Navaid (VOR, NDB)
Fix

Horizontal Profiles

Position Reports

Time Latitude Longitude Heading Altitude Ground
Speed
19-Sep-14 14:39 35.164820 -114.556563 261 700ft 0kts
19-Sep-14 14:40 35.164820 -114.556564 261 700ft 0kts
19-Sep-14 14:41 35.164627 -114.558565 265 700ft 3kts
19-Sep-14 14:42 35.167506 -114.559151 319 700ft 0kts
19-Sep-14 14:43 35.167562 -114.559570 264 700ft 0kts
19-Sep-14 14:44 35.167216 -114.560285 176 700ft 0kts
19-Sep-14 14:45 35.166511 -114.560231 176 700ft 32kts
19-Sep-14 14:46 35.134941 -114.563116 220 2130ft 155kts
19-Sep-14 14:47 35.138731 -114.618442 274 5344ft 180kts
19-Sep-14 14:48 35.136183 -114.690857 266 8319ft 237kts
19-Sep-14 14:49 35.126632 -114.774754 259 11924ft 255kts
19-Sep-14 14:50 35.104921 -114.874172 255 12438ft 332kts
19-Sep-14 14:51 35.078552 -114.979935 254 12376ft 334kts
19-Sep-14 14:52 35.051671 -115.087466 255 12373ft 325kts
19-Sep-14 14:53 35.025420 -115.192407 255 12377ft 326kts
19-Sep-14 14:54 34.998600 -115.300197 255 12371ft 337kts
19-Sep-14 14:55 34.971576 -115.408982 255 12371ft 327kts
19-Sep-14 14:56 34.945589 -115.513136 255 12369ft 315kts
19-Sep-14 14:57 34.920128 -115.614587 255 12425ft 314kts
19-Sep-14 14:58 34.894463 -115.716456 255 12456ft 316kts
19-Sep-14 14:59 34.873154 -115.820907 259 12485ft 318kts
19-Sep-14 15:00 34.856172 -115.927432 262 12467ft 322kts
19-Sep-14 15:01 34.842084 -116.034913 265 12482ft 322kts
19-Sep-14 15:02 34.831337 -116.143706 266 12479ft 323kts
19-Sep-14 15:03 34.823319 -116.252688 267 12481ft 323kts
19-Sep-14 15:04 34.815592 -116.362167 267 12460ft 324kts
19-Sep-14 15:05 34.807527 -116.471748 266 12466ft 324kts
19-Sep-14 15:06 34.793090 -116.580410 260 12455ft 326kts
19-Sep-14 15:07 34.773176 -116.688443 259 12461ft 326kts
19-Sep-14 15:08 34.749408 -116.795443 252 12458ft 328kts
19-Sep-14 15:09 34.717334 -116.899979 249 12397ft 331kts
19-Sep-14 15:10 34.679792 -117.002454 247 12411ft 330kts
19-Sep-14 15:11 34.641289 -117.104113 247 12410ft 330kts
19-Sep-14 15:12 34.605691 -117.206630 250 12460ft 333kts
19-Sep-14 15:13 34.571168 -117.311390 250 12489ft 332kts
19-Sep-14 15:14 34.536937 -117.415330 250 12500ft 330kts
19-Sep-14 15:15 34.503242 -117.518485 250 12518ft 330kts
19-Sep-14 15:16 34.469854 -117.621034 250 12554ft 323kts
19-Sep-14 15:17 34.439798 -117.722799 250 12564ft 319kts
19-Sep-14 15:17 34.416381 -117.806302 249 11858ft 295kts
19-Sep-14 15:18 34.382252 -117.889943 243 10791ft 261kts
19-Sep-14 15:19 34.352082 -117.965603 240 9811ft 247kts
19-Sep-14 15:20 34.318317 -118.040627 240 8556ft 250kts
19-Sep-14 15:21 34.283560 -118.109647 239 7998ft 230kts
19-Sep-14 15:22 34.253377 -118.184525 247 6151ft 263kts
19-Sep-14 15:23 34.218463 -118.244362 227 4640ft 163kts
19-Sep-14 15:24 34.199809 -118.290234 252 2990ft 148kts
19-Sep-14 15:25 34.197452 -118.338762 271 1075ft 137kts
19-Sep-14 15:26 34.198399 -118.364528 358 783ft 4kts
19-Sep-14 15:27 34.200225 -118.364562 252 783ft 0kts
19-Sep-14 15:28 34.200225 -118.364563 252 783ft 0kts
19-Sep-14 15:29 34.200225 -118.364563 252 783ft 0kts
19-Sep-14 15:30 34.200225 -118.364563 252 783ft 0kts
19-Sep-14 15:31 34.200225 -118.364563 252 783ft 0kts
19-Sep-14 15:32 34.200225 -118.364563 252 783ft 0kts
19-Sep-14 15:33 34.200225 -118.364563 252 783ft 0kts
19-Sep-14 15:34 34.200225 -118.364563 252 783ft 0kts
19-Sep-14 15:35 34.200225 -118.364563 252 783ft 0kts
19-Sep-14 15:36 34.200225 -118.364563 252 783ft 0kts
19-Sep-14 15:37 34.200225 -118.364563 252 783ft 0kts
19-Sep-14 15:38 34.200225 -118.364563 252 783ft 0kts
19-Sep-14 15:39 34.200225 -118.364563 252 783ft 0kts
19-Sep-14 15:40 34.200225 -118.364563 252 783ft 0kts

Navigation Log

Ident Type
Flight plan parsing failed, navigation log unavailable